sensor_id;sensor_type;location;lat;lon;timestamp;pressure;altitude;pressure_sealevel;temperature;humidity
14293;BME280;62290;59.420;17.842;2023-01-25T00:00:53;102043.84;;;25.19;24.60
14293;BME280;62290;59.420;17.842;2023-01-25T00:03:21;102034.88;;;25.18;24.84
14293;BME280;62290;59.420;17.842;2023-01-25T00:05:57;102034.66;;;25.22;24.84
14293;BME280;62290;59.420;17.842;2023-01-25T00:08:25;102032.16;;;25.18;24.51
14293;BME280;62290;59.420;17.842;2023-01-25T00:10:53;102031.44;;;25.16;24.73
14293;BME280;62290;59.420;17.842;2023-01-25T00:13:25;102026.03;;;25.16;25.00
14293;BME280;62290;59.420;17.842;2023-01-25T00:15:59;102024.72;;;25.22;24.71
14293;BME280;62290;59.420;17.842;2023-01-25T00:18:27;102019.75;;;25.29;24.76
14293;BME280;62290;59.420;17.842;2023-01-25T00:20:55;102021.88;;;25.36;25.14
14293;BME280;62290;59.420;17.842;2023-01-25T00:23:23;102008.03;;;25.41;25.14
14293;BME280;62290;59.420;17.842;2023-01-25T00:25:55;102005.66;;;25.49;24.89
14293;BME280;62290;59.420;17.842;2023-01-25T00:28:25;101998.81;;;25.56;24.79
14293;BME280;62290;59.420;17.842;2023-01-25T00:30:58;101998.34;;;25.62;24.82
14293;BME280;62290;59.420;17.842;2023-01-25T00:33:39;101994.56;;;25.64;24.42
14293;BME280;62290;59.420;17.842;2023-01-25T00:36:33;101997.03;;;25.67;24.67
14293;BME280;62290;59.420;17.842;2023-01-25T00:39:10;101983.41;;;25.69;24.75
14293;BME280;62290;59.420;17.842;2023-01-25T00:41:39;101984.25;;;25.69;24.77
14293;BME280;62290;59.420;17.842;2023-01-25T00:44:08;101976.81;;;25.73;24.28
14293;BME280;62290;59.420;17.842;2023-01-25T00:46:36;101990.16;;;25.74;24.33
14293;BME280;62290;59.420;17.842;2023-01-25T00:49:05;101972.00;;;25.76;24.53
14293;BME280;62290;59.420;17.842;2023-01-25T00:51:33;101971.78;;;25.80;24.21
14293;BME280;62290;59.420;17.842;2023-01-25T00:54:01;101967.97;;;25.82;24.37
14293;BME280;62290;59.420;17.842;2023-01-25T00:56:29;101972.50;;;25.82;24.29
14293;BME280;62290;59.420;17.842;2023-01-25T00:58:57;101970.69;;;25.82;24.47
14293;BME280;62290;59.420;17.842;2023-01-25T01:01:26;101967.75;;;25.85;24.28
14293;BME280;62290;59.420;17.842;2023-01-25T01:03:54;101954.25;;;25.85;23.89
14293;BME280;62290;59.420;17.842;2023-01-25T01:06:22;101949.81;;;25.84;24.32
14293;BME280;62290;59.420;17.842;2023-01-25T01:08:51;101951.41;;;25.87;24.42
14293;BME280;62290;59.420;17.842;2023-01-25T01:11:22;101944.53;;;25.83;23.83
14293;BME280;62290;59.420;17.842;2023-01-25T01:13:50;101940.72;;;25.85;24.38
14293;BME280;62290;59.420;17.842;2023-01-25T01:16:18;101938.16;;;25.84;23.88
14293;BME280;62290;59.420;17.842;2023-01-25T01:18:47;101937.16;;;25.85;24.25
14293;BME280;62290;59.420;17.842;2023-01-25T01:21:17;101947.09;;;25.84;24.02
14293;BME280;62290;59.420;17.842;2023-01-25T01:23:45;101937.16;;;25.85;23.87
14293;BME280;62290;59.420;17.842;2023-01-25T01:26:15;101936.19;;;25.86;24.03
14293;BME280;62290;59.420;17.842;2023-01-25T01:28:45;101922.69;;;25.86;24.37
14293;BME280;62290;59.420;17.842;2023-01-25T01:31:15;101905.84;;;25.82;24.15
14293;BME280;62290;59.420;17.842;2023-01-25T01:34:06;101914.59;;;25.86;23.95
14293;BME280;62290;59.420;17.842;2023-01-25T01:36:34;101904.88;;;25.83;24.02
14293;BME280;62290;59.420;17.842;2023-01-25T01:39:02;101904.88;;;25.83;24.40
14293;BME280;62290;59.420;17.842;2023-01-25T01:41:30;101907.59;;;25.83;23.88
14293;BME280;62290;59.420;17.842;2023-01-25T01:43:58;101895.94;;;25.83;24.38
14293;BME280;62290;59.420;17.842;2023-01-25T01:46:28;101906.97;;;25.80;24.04
14293;BME280;62290;59.420;17.842;2023-01-25T01:49:02;101898.84;;;25.80;24.06
14293;BME280;62290;59.420;17.842;2023-01-25T01:51:41;101900.69;;;25.79;24.34
14293;BME280;62290;59.420;17.842;2023-01-25T01:54:18;101893.47;;;25.80;23.99
14293;BME280;62290;59.420;17.842;2023-01-25T01:56:53;101891.63;;;25.80;24.42
14293;BME280;62290;59.420;17.842;2023-01-25T01:59:26;101891.63;;;25.80;23.95
14293;BME280;62290;59.420;17.842;2023-01-25T02:01:54;101896.06;;;25.81;24.51
14293;BME280;62290;59.420;17.842;2023-01-25T02:04:24;101896.06;;;25.81;24.18
14293;BME280;62290;59.420;17.842;2023-01-25T02:07:00;101889.78;;;25.81;24.02
14293;BME280;62290;59.420;17.842;2023-01-25T02:09:31;101889.88;;;25.79;24.11
14293;BME280;62290;59.420;17.842;2023-01-25T02:12:01;101893.47;;;25.80;24.15
14293;BME280;62290;59.420;17.842;2023-01-25T02:14:30;101884.25;;;25.82;24.45
14293;BME280;62290;59.420;17.842;2023-01-25T02:16:59;101893.34;;;25.81;24.46
14293;BME280;62290;59.420;17.842;2023-01-25T02:19:36;101881.69;;;25.81;24.38
14293;BME280;62290;59.420;17.842;2023-01-25T02:22:09;101884.63;;;25.77;24.44
14293;BME280;62290;59.420;17.842;2023-01-25T02:24:45;101885.50;;;25.78;24.53
14293;BME280;62290;59.420;17.842;2023-01-25T02:27:17;101884.00;;;25.74;24.27
14293;BME280;62290;59.420;17.842;2023-01-25T02:29:45;101872.97;;;25.77;24.59
14293;BME280;62290;59.420;17.842;2023-01-25T02:32:14;101867.06;;;25.72;24.27
14293;BME280;62290;59.420;17.842;2023-01-25T02:34:42;101863.50;;;25.71;24.24
14293;BME280;62290;59.420;17.842;2023-01-25T02:37:12;101869.03;;;25.70;24.35
14293;BME280;62290;59.420;17.842;2023-01-25T02:39:41;101868.53;;;25.65;24.50
14293;BME280;62290;59.420;17.842;2023-01-25T02:42:09;101861.41;;;25.64;24.21
14293;BME280;62290;59.420;17.842;2023-01-25T02:44:40;101854.75;;;25.57;24.63
14293;BME280;62290;59.420;17.842;2023-01-25T02:47:08;101840.41;;;25.56;24.22
14293;BME280;62290;59.420;17.842;2023-01-25T02:49:38;101834.38;;;25.53;24.35
14293;BME280;62290;59.420;17.842;2023-01-25T02:52:07;101843.47;;;25.52;24.63
14293;BME280;62290;59.420;17.842;2023-01-25T02:54:35;101835.59;;;25.49;24.23
14293;BME280;62290;59.420;17.842;2023-01-25T02:57:05;101848.97;;;25.50;24.56
14293;BME280;62290;59.420;17.842;2023-01-25T02:59:42;101842.47;;;25.53;24.27
14293;BME280;62290;59.420;17.842;2023-01-25T03:02:12;101839.91;;;25.51;24.19
14293;BME280;62290;59.420;17.842;2023-01-25T03:04:41;101835.59;;;25.49;24.30
14293;BME280;62290;59.420;17.842;2023-01-25T03:07:09;101829.66;;;25.44;24.68
14293;BME280;62290;59.420;17.842;2023-01-25T03:09:37;101833.34;;;25.43;24.73
14293;BME280;62290;59.420;17.842;2023-01-25T03:12:05;101830.13;;;25.38;24.35
14293;BME280;62290;59.420;17.842;2023-01-25T03:14:34;101823.28;;;25.34;24.74
14293;BME280;62290;59.420;17.842;2023-01-25T03:17:03;101815.19;;;25.34;24.54
14293;BME280;62290;59.420;17.842;2023-01-25T03:19:31;101819.94;;;25.30;24.65
14293;BME280;62290;59.420;17.842;2023-01-25T03:21:59;101816.38;;;25.30;24.89
14293;BME280;62290;59.420;17.842;2023-01-25T03:24:30;101813.69;;;25.30;24.50
14293;BME280;62290;59.420;17.842;2023-01-25T03:26:58;101808.28;;;25.30;24.53
14293;BME280;62290;59.420;17.842;2023-01-25T03:29:43;101808.19;;;25.31;24.59
14293;BME280;62290;59.420;17.842;2023-01-25T03:32:24;101793.59;;;25.34;24.44
14293;BME280;62290;59.420;17.842;2023-01-25T03:34:53;101785.59;;;25.32;24.65
14293;BME280;62290;59.420;17.842;2023-01-25T03:37:21;101784.88;;;25.30;24.85
14293;BME280;62290;59.420;17.842;2023-01-25T03:39:49;101789.53;;;25.28;24.64
14293;BME280;62290;59.420;17.842;2023-01-25T03:42:18;101786.09;;;25.26;24.47
14293;BME280;62290;59.420;17.842;2023-01-25T03:44:51;101777.00;;;25.27;24.56
14293;BME280;62290;59.420;17.842;2023-01-25T03:47:19;101771.88;;;25.35;24.54
14293;BME280;62290;59.420;17.842;2023-01-25T03:49:49;101769.19;;;25.35;24.45
14293;BME280;62290;59.420;17.842;2023-01-25T03:52:17;101770.41;;;25.31;24.79
14293;BME280;62290;59.420;17.842;2023-01-25T03:54:48;101769.53;;;25.31;24.47
14293;BME280;62290;59.420;17.842;2023-01-25T03:57:17;101756.78;;;25.33;24.58
14293;BME280;62290;59.420;17.842;2023-01-25T03:59:56;101752.75;;;25.38;24.79
14293;BME280;62290;59.420;17.842;2023-01-25T04:02:25;101744.88;;;25.35;24.42
14293;BME280;62290;59.420;17.842;2023-01-25T04:04:55;101744.25;;;25.32;24.66
14293;BME280;62290;59.420;17.842;2023-01-25T04:07:23;101746.34;;;25.28;24.94
14293;BME280;62290;59.420;17.842;2023-01-25T04:09:52;101745.50;;;25.28;24.59
14293;BME280;62290;59.420;17.842;2023-01-25T04:12:20;101731.03;;;25.29;24.97
14293;BME280;62290;59.420;17.842;2023-01-25T04:14:47;101720.25;;;25.29;24.53
14293;BME280;62290;59.420;17.842;2023-01-25T04:17:20;101726.97;;;25.34;24.62
14293;BME280;62290;59.420;17.842;2023-01-25T04:19:51;101718.53;;;25.39;24.65
14293;BME280;62290;59.420;17.842;2023-01-25T04:22:25;101715.47;;;25.43;24.54
14293;BME280;62290;59.420;17.842;2023-01-25T04:24:55;101726.38;;;25.42;24.52
14293;BME280;62290;59.420;17.842;2023-01-25T04:27:23;101711.16;;;25.41;25.01
14293;BME280;62290;59.420;17.842;2023-01-25T04:30:17;101712.88;;;25.42;24.94
14293;BME280;62290;59.420;17.842;2023-01-25T04:32:47;101709.91;;;25.45;24.43
14293;BME280;62290;59.420;17.842;2023-01-25T04:35:23;101709.00;;;25.46;24.49
14293;BME280;62290;59.420;17.842;2023-01-25T04:37:54;101706.16;;;25.47;24.53
14293;BME280;62290;59.420;17.842;2023-01-25T04:40:27;101709.72;;;25.48;24.46
14293;BME280;62290;59.420;17.842;2023-01-25T04:42:55;101694.72;;;25.44;24.99
14293;BME280;62290;59.420;17.842;2023-01-25T04:45:24;101707.34;;;25.43;25.05
14293;BME280;62290;59.420;17.842;2023-01-25T04:47:59;101701.97;;;25.43;24.94
14293;BME280;62290;59.420;17.842;2023-01-25T04:50:29;101701.81;;;25.45;24.65
14293;BME280;62290;59.420;17.842;2023-01-25T04:52:59;101713.41;;;25.47;24.89
14293;BME280;62290;59.420;17.842;2023-01-25T04:55:29;101707.75;;;25.50;24.48
14293;BME280;62290;59.420;17.842;2023-01-25T04:58:00;101702.25;;;25.51;24.58
14293;BME280;62290;59.420;17.842;2023-01-25T05:00:28;101705.03;;;25.50;24.67
14293;BME280;62290;59.420;17.842;2023-01-25T05:02:58;101696.22;;;25.48;24.88
14293;BME280;62290;59.420;17.842;2023-01-25T05:05:27;101704.53;;;25.45;24.57
14293;BME280;62290;59.420;17.842;2023-01-25T05:07:55;101689.44;;;25.42;25.04
14293;BME280;62290;59.420;17.842;2023-01-25T05:10:24;101693.13;;;25.41;24.99
14293;BME280;62290;59.420;17.842;2023-01-25T05:13:18;101688.59;;;25.42;24.63
14293;BME280;62290;59.420;17.842;2023-01-25T05:15:49;101689.19;;;25.45;24.67
14293;BME280;62290;59.420;17.842;2023-01-25T05:18:17;101679.28;;;25.46;25.01
14293;BME280;62290;59.420;17.842;2023-01-25T05:20:47;101691.81;;;25.47;24.95
14293;BME280;62290;59.420;17.842;2023-01-25T05:23:15;101691.81;;;25.47;24.74
14293;BME280;62290;59.420;17.842;2023-01-25T05:25:44;101697.72;;;25.52;25.03
14293;BME280;62290;59.420;17.842;2023-01-25T05:28:31;101695.50;;;25.46;24.65
14293;BME280;62290;59.420;17.842;2023-01-25T05:31:19;101682.94;;;25.45;24.81
14293;BME280;62290;59.420;17.842;2023-01-25T05:33:47;101681.03;;;25.47;24.92
14293;BME280;62290;59.420;17.842;2023-01-25T05:36:17;101680.88;;;25.48;25.28
14293;BME280;62290;59.420;17.842;2023-01-25T05:38:45;101666.44;;;25.49;25.17
14293;BME280;62290;59.420;17.842;2023-01-25T05:41:14;101668.88;;;25.52;24.70
14293;BME280;62290;59.420;17.842;2023-01-25T05:43:42;101662.38;;;25.55;25.03
14293;BME280;62290;59.420;17.842;2023-01-25T05:46:10;101672.41;;;25.53;25.00
14293;BME280;62290;59.420;17.842;2023-01-25T05:48:39;101670.59;;;25.53;24.81
14293;BME280;62290;59.420;17.842;2023-01-25T05:51:07;101664.31;;;25.53;25.21
14293;BME280;62290;59.420;17.842;2023-01-25T05:53:36;101662.63;;;25.52;24.93
14293;BME280;62290;59.420;17.842;2023-01-25T05:56:04;101663.34;;;25.54;25.26
14293;BME280;62290;59.420;17.842;2023-01-25T05:58:35;101650.34;;;25.59;25.23
14293;BME280;62290;59.420;17.842;2023-01-25T06:01:05;101654.88;;;25.58;24.79
14293;BME280;62290;59.420;17.842;2023-01-25T06:03:44;101645.66;;;25.50;25.16
14293;BME280;62290;59.420;17.842;2023-01-25T06:06:13;101641.50;;;25.46;24.81
14293;BME280;62290;59.420;17.842;2023-01-25T06:08:41;101640.41;;;25.48;25.13
14293;BME280;62290;59.420;17.842;2023-01-25T06:11:11;101637.47;;;25.51;25.12
14293;BME280;62290;59.420;17.842;2023-01-25T06:13:44;101640.28;;;25.50;25.07
14293;BME280;62290;59.420;17.842;2023-01-25T06:16:13;101641.50;;;25.46;24.88
14293;BME280;62290;59.420;17.842;2023-01-25T06:18:42;101639.69;;;25.46;24.93
14293;BME280;62290;59.420;17.842;2023-01-25T06:21:22;101638.06;;;25.44;24.84
14293;BME280;62290;59.420;17.842;2023-01-25T06:23:50;101632.66;;;25.44;24.97
14293;BME280;62290;59.420;17.842;2023-01-25T06:26:18;101631.66;;;25.45;24.82
14293;BME280;62290;59.420;17.842;2023-01-25T06:28:47;101620.78;;;25.46;25.35
14293;BME280;62290;59.420;17.842;2023-01-25T06:31:18;101620.78;;;25.46;25.06
14293;BME280;62290;59.420;17.842;2023-01-25T06:33:47;101618.69;;;25.50;24.87
14293;BME280;62290;59.420;17.842;2023-01-25T06:36:19;101622.13;;;25.52;25.11
14293;BME280;62290;59.420;17.842;2023-01-25T06:38:48;101609.75;;;25.49;24.96
14293;BME280;62290;59.420;17.842;2023-01-25T06:41:17;101611.81;;;25.46;25.20
14293;BME280;62290;59.420;17.842;2023-01-25T06:43:48;101603.84;;;25.44;25.02
14293;BME280;62290;59.420;17.842;2023-01-25T06:46:17;101606.44;;;25.46;25.38
14293;BME280;62290;59.420;17.842;2023-01-25T06:48:46;101601.25;;;25.43;25.44
14293;BME280;62290;59.420;17.842;2023-01-25T06:51:15;101599.66;;;25.40;24.88
14293;BME280;62290;59.420;17.842;2023-01-25T06:53:44;101599.78;;;25.39;25.41
14293;BME280;62290;59.420;17.842;2023-01-25T06:56:16;101608.63;;;25.41;25.45
14293;BME280;62290;59.420;17.842;2023-01-25T06:58:45;101597.19;;;25.37;25.01
14293;BME280;62290;59.420;17.842;2023-01-25T07:01:16;101592.66;;;25.38;25.37
14293;BME280;62290;59.420;17.842;2023-01-25T07:03:49;101588.38;;;25.35;25.08
14293;BME280;62290;59.420;17.842;2023-01-25T07:06:18;101587.75;;;25.32;25.12
14293;BME280;62290;59.420;17.842;2023-01-25T07:08:47;101600.03;;;25.36;25.32
14293;BME280;62290;59.420;17.842;2023-01-25T07:11:15;101593.41;;;25.40;25.24
14293;BME280;62290;59.420;17.842;2023-01-25T07:13:46;101589.34;;;25.45;25.24
14293;BME280;62290;59.420;17.842;2023-01-25T07:16:18;101591.69;;;25.50;25.24
14293;BME280;62290;59.420;17.842;2023-01-25T07:18:46;101594.38;;;25.50;24.83
14293;BME280;62290;59.420;17.842;2023-01-25T07:21:16;101598.81;;;25.51;25.15
14293;BME280;62290;59.420;17.842;2023-01-25T07:23:46;101592.78;;;25.47;25.01
14293;BME280;62290;59.420;17.842;2023-01-25T07:26:16;101589.47;;;25.44;25.33
14293;BME280;62290;59.420;17.842;2023-01-25T07:28:45;101587.66;;;25.44;24.90
14293;BME280;62290;59.420;17.842;2023-01-25T07:31:16;101586.56;;;25.47;25.39
14293;BME280;62290;59.420;17.842;2023-01-25T07:33:46;101570.38;;;25.47;25.21
14293;BME280;62290;59.420;17.842;2023-01-25T07:36:15;101560.53;;;25.35;25.14
14293;BME280;62290;59.420;17.842;2023-01-25T07:38:44;101583.72;;;25.48;24.96
14293;BME280;62290;59.420;17.842;2023-01-25T07:41:12;101586.19;;;25.51;25.15
14293;BME280;62290;59.420;17.842;2023-01-25T07:43:42;101578.19;;;25.50;25.03
14293;BME280;62290;59.420;17.842;2023-01-25T07:46:11;101580.06;;;25.49;24.88
14293;BME280;62290;59.420;17.842;2023-01-25T07:48:44;101575.50;;;25.50;25.32
14293;BME280;62290;59.420;17.842;2023-01-25T07:51:14;101580.88;;;25.50;25.36
14293;BME280;62290;59.420;17.842;2023-01-25T07:53:50;101572.28;;;25.45;25.23
14293;BME280;62290;59.420;17.842;2023-01-25T07:56:21;101575.97;;;25.44;25.15
14293;BME280;62290;59.420;17.842;2023-01-25T07:58:51;101566.66;;;25.48;25.17
14293;BME280;62290;59.420;17.842;2023-01-25T08:01:20;101572.22;;;25.46;25.34
14293;BME280;62290;59.420;17.842;2023-01-25T08:03:50;101565.31;;;25.53;25.58
14293;BME280;62290;59.420;17.842;2023-01-25T08:06:22;101555.59;;;25.62;25.05
14293;BME280;62290;59.420;17.842;2023-01-25T08:08:53;101562.44;;;25.66;25.29
14293;BME280;62290;59.420;17.842;2023-01-25T08:11:23;101550.19;;;25.73;25.36
14293;BME280;62290;59.420;17.842;2023-01-25T08:13:52;101555.44;;;25.74;25.41
14293;BME280;62290;59.420;17.842;2023-01-25T08:16:21;101546.94;;;25.79;25.12
14293;BME280;62290;59.420;17.842;2023-01-25T08:18:52;101545.72;;;25.83;24.96
14293;BME280;62290;59.420;17.842;2023-01-25T08:21:21;101529.53;;;25.83;25.17
14293;BME280;62290;59.420;17.842;2023-01-25T08:23:51;101528.41;;;25.86;25.09
14293;BME280;62290;59.420;17.842;2023-01-25T08:26:19;101527.28;;;25.88;25.09
14293;BME280;62290;59.420;17.842;2023-01-25T08:28:48;101528.00;;;25.90;25.05
14293;BME280;62290;59.420;17.842;2023-01-25T08:31:20;101529.44;;;25.94;25.25
14293;BME280;62290;59.420;17.842;2023-01-25T08:33:50;101503.50;;;25.82;24.75
14293;BME280;62290;59.420;17.842;2023-01-25T08:36:19;101526.50;;;25.97;24.68
14293;BME280;62290;59.420;17.842;2023-01-25T08:38:53;101529.09;;;25.99;25.08
14293;BME280;62290;59.420;17.842;2023-01-25T08:41:21;101531.06;;;25.97;25.10
14293;BME280;62290;59.420;17.842;2023-01-25T08:43:51;101521.94;;;25.98;24.78
14293;BME280;62290;59.420;17.842;2023-01-25T08:46:21;101518.28;;;25.99;24.68
14293;BME280;62290;59.420;17.842;2023-01-25T08:48:54;101519.00;;;26.01;25.01
14293;BME280;62290;59.420;17.842;2023-01-25T08:51:23;101516.16;;;26.02;24.61
14293;BME280;62290;59.420;17.842;2023-01-25T08:53:51;101514.47;;;26.01;24.81
14293;BME280;62290;59.420;17.842;2023-01-25T08:56:19;101512.47;;;26.03;25.04
14293;BME280;62290;59.420;17.842;2023-01-25T08:58:48;101499.56;;;26.07;24.57
14293;BME280;62290;59.420;17.842;2023-01-25T09:01:18;101498.72;;;26.06;25.06
14293;BME280;62290;59.420;17.842;2023-01-25T09:03:48;101494.16;;;26.07;25.02
14293;BME280;62290;59.420;17.842;2023-01-25T09:06:18;101496.72;;;26.08;24.99
14293;BME280;62290;59.420;17.842;2023-01-25T09:08:46;101495.88;;;26.08;24.54
14293;BME280;62290;59.420;17.842;2023-01-25T09:11:16;101501.97;;;26.10;24.50
14293;BME280;62290;59.420;17.842;2023-01-25T09:13:45;101487.44;;;26.12;24.65
14293;BME280;62290;59.420;17.842;2023-01-25T09:16:16;101507.06;;;26.14;24.42
14293;BME280;62290;59.420;17.842;2023-01-25T09:18:46;101496.25;;;26.14;24.47
14293;BME280;62290;59.420;17.842;2023-01-25T09:21:18;101500.63;;;26.15;24.64
14293;BME280;62290;59.420;17.842;2023-01-25T09:23:47;101516.03;;;26.15;24.39
14293;BME280;62290;59.420;17.842;2023-01-25T09:26:29;101498.94;;;26.14;24.30
14293;BME280;62290;59.420;17.842;2023-01-25T09:28:58;101499.81;;;26.15;24.62
14293;BME280;62290;59.420;17.842;2023-01-25T09:31:26;101500.63;;;26.15;24.24
14293;BME280;62290;59.420;17.842;2023-01-25T09:34:07;101481.72;;;26.15;24.67
14293;BME280;62290;59.420;17.842;2023-01-25T09:36:37;101487.03;;;26.17;24.23
14293;BME280;62290;59.420;17.842;2023-01-25T09:39:05;101497.09;;;26.15;24.57
14293;BME280;62290;59.420;17.842;2023-01-25T09:41:42;101485.44;;;26.14;24.20
14293;BME280;62290;59.420;17.842;2023-01-25T09:44:36;101481.72;;;26.15;24.52
14293;BME280;62290;59.420;17.842;2023-01-25T09:47:14;101475.50;;;26.15;24.37
14293;BME280;62290;59.420;17.842;2023-01-25T09:50:01;101468.38;;;26.14;24.60
14293;BME280;62290;59.420;17.842;2023-01-25T09:52:56;101478.31;;;26.13;24.57
14293;BME280;62290;59.420;17.842;2023-01-25T09:55:28;101460.25;;;26.14;24.13
14293;BME280;62290;59.420;17.842;2023-01-25T09:57:59;101456.59;;;26.15;24.13
14293;BME280;62290;59.420;17.842;2023-01-25T10:00:31;101452.75;;;26.17;24.22
14293;BME280;62290;59.420;17.842;2023-01-25T10:03:03;101446.22;;;26.20;24.16
14293;BME280;62290;59.420;17.842;2023-01-25T10:05:36;101441.66;;;26.20;24.07
14293;BME280;62290;59.420;17.842;2023-01-25T10:08:14;101435.28;;;26.21;24.16
14293;BME280;62290;59.420;17.842;2023-01-25T10:10:47;101438.69;;;26.23;24.43
14293;BME280;62290;59.420;17.842;2023-01-25T10:13:21;101443.13;;;26.24;24.61
14293;BME280;62290;59.420;17.842;2023-01-25T10:15:51;101420.03;;;26.20;24.58
14293;BME280;62290;59.420;17.842;2023-01-25T10:18:27;101431.78;;;26.30;24.60
14293;BME280;62290;59.420;17.842;2023-01-25T10:20:57;101420.81;;;26.32;24.60
14293;BME280;62290;59.420;17.842;2023-01-25T10:23:45;101424.41;;;26.32;24.20
14293;BME280;62290;59.420;17.842;2023-01-25T10:26:21;101410.88;;;26.32;24.39
14293;BME280;62290;59.420;17.842;2023-01-25T10:28:55;101412.47;;;26.35;24.14
14293;BME280;62290;59.420;17.842;2023-01-25T10:31:28;101415.72;;;26.38;24.52
14293;BME280;62290;59.420;17.842;2023-01-25T10:34:01;101411.31;;;26.38;24.01
14293;BME280;62290;59.420;17.842;2023-01-25T10:36:30;101407.06;;;26.35;24.11
14293;BME280;62290;59.420;17.842;2023-01-25T10:38:59;101402.50;;;26.35;24.20
14293;BME280;62290;59.420;17.842;2023-01-25T10:41:34;101401.50;;;26.36;24.48
14293;BME280;62290;59.420;17.842;2023-01-25T10:44:03;101398.78;;;26.36;24.20
14293;BME280;62290;59.420;17.842;2023-01-25T10:47:04;101397.94;;;26.36;24.10
14293;BME280;62290;59.420;17.842;2023-01-25T10:49:41;101397.94;;;26.36;24.53
14293;BME280;62290;59.420;17.842;2023-01-25T10:52:12;101386.41;;;26.34;24.44
14293;BME280;62290;59.420;17.842;2023-01-25T10:54:42;101386.28;;;26.35;24.46
14293;BME280;62290;59.420;17.842;2023-01-25T10:57:13;101358.66;;;26.22;24.16
14293;BME280;62290;59.420;17.842;2023-01-25T10:59:45;101365.66;;;26.34;24.19
14293;BME280;62290;59.420;17.842;2023-01-25T11:02:38;101366.38;;;26.36;24.48
14293;BME280;62290;59.420;17.842;2023-01-25T11:05:24;101366.38;;;26.36;24.08
14293;BME280;62290;59.420;17.842;2023-01-25T11:07:52;101359.38;;;26.34;24.14
14293;BME280;62290;59.420;17.842;2023-01-25T11:10:29;101369.22;;;26.35;24.55
14293;BME280;62290;59.420;17.842;2023-01-25T11:13:17;101367.66;;;26.32;24.31
14293;BME280;62290;59.420;17.842;2023-01-25T11:15:48;101355.81;;;26.33;24.55
14293;BME280;62290;59.420;17.842;2023-01-25T11:18:20;101351.28;;;26.34;24.64
14293;BME280;62290;59.420;17.842;2023-01-25T11:21:03;101344.91;;;26.35;24.20
14293;BME280;62290;59.420;17.842;2023-01-25T11:23:32;101344.31;;;26.31;24.56
14293;BME280;62290;59.420;17.842;2023-01-25T11:26:14;101330.66;;;26.33;24.43
14293;BME280;62290;59.420;17.842;2023-01-25T11:28:42;101333.63;;;26.30;24.44
14293;BME280;62290;59.420;17.842;2023-01-25T11:31:13;101333.50;;;26.31;24.65
14293;BME280;62290;59.420;17.842;2023-01-25T11:33:41;101321.97;;;26.29;24.65
14293;BME280;62290;59.420;17.842;2023-01-25T11:36:29;101319.13;;;26.31;24.26
14293;BME280;62290;59.420;17.842;2023-01-25T11:39:10;101318.69;;;26.26;24.67
14293;BME280;62290;59.420;17.842;2023-01-25T11:41:54;101320.25;;;26.28;24.73
14293;BME280;62290;59.420;17.842;2023-01-25T11:44:50;101320.41;;;26.27;24.69
14293;BME280;62290;59.420;17.842;2023-01-25T11:47:31;101300.91;;;26.23;24.27
14293;BME280;62290;59.420;17.842;2023-01-25T11:50:09;101312.41;;;26.25;24.32
14293;BME280;62290;59.420;17.842;2023-01-25T11:52:51;101317.81;;;26.25;24.14
14293;BME280;62290;59.420;17.842;2023-01-25T11:55:25;101290.31;;;26.11;24.29
14293;BME280;62290;59.420;17.842;2023-01-25T11:58:09;101298.19;;;26.23;24.34
14293;BME280;62290;59.420;17.842;2023-01-25T12:00:50;101302.72;;;26.23;24.57
14293;BME280;62290;59.420;17.842;2023-01-25T12:06:34;101307.00;;;26.25;24.84
14293;BME280;62290;59.420;17.842;2023-01-25T12:09:21;101318.81;;;26.24;24.87
14293;BME280;62290;59.420;17.842;2023-01-25T12:12:09;101309.84;;;26.24;24.76
14293;BME280;62290;59.420;17.842;2023-01-25T12:14:53;101315.84;;;26.27;24.74
14293;BME280;62290;59.420;17.842;2023-01-25T12:17:34;101310.13;;;26.21;25.18
14293;BME280;62290;59.420;17.842;2023-01-25T12:20:19;101308.81;;;26.15;25.71
14293;BME280;62290;59.420;17.842;2023-01-25T12:23:08;101298.63;;;26.19;26.09
14293;BME280;62290;59.420;17.842;2023-01-25T12:25:46;101296.78;;;26.19;26.43
14293;BME280;62290;59.420;17.842;2023-01-25T12:28:21;101299.91;;;26.24;26.32
14293;BME280;62290;59.420;17.842;2023-01-25T12:30:52;101310.84;;;26.23;26.71
14293;BME280;62290;59.420;17.842;2023-01-25T12:33:27;101309.16;;;26.22;26.48
14293;BME280;62290;59.420;17.842;2023-01-25T12:35:59;101313.97;;;26.18;26.54
14293;BME280;62290;59.420;17.842;2023-01-25T12:38:34;101311.53;;;26.15;26.79
14293;BME280;62290;59.420;17.842;2023-01-25T12:41:10;101311.06;;;26.10;27.20
14293;BME280;62290;59.420;17.842;2023-01-25T12:43:45;101307.03;;;26.05;27.17
14293;BME280;62290;59.420;17.842;2023-01-25T12:46:21;101306.06;;;26.06;27.21
14293;BME280;62290;59.420;17.842;2023-01-25T12:48:53;101309.47;;;26.08;27.09
14293;BME280;62290;59.420;17.842;2023-01-25T12:51:28;101300.50;;;26.07;26.69
14293;BME280;62290;59.420;17.842;2023-01-25T12:54:02;101306.31;;;26.03;26.71
14293;BME280;62290;59.420;17.842;2023-01-25T12:56:38;101304.63;;;26.02;26.82
14293;BME280;62290;59.420;17.842;2023-01-25T12:59:15;101322.69;;;26.01;26.64
14293;BME280;62290;59.420;17.842;2023-01-25T13:01:50;101305.75;;;25.99;27.10
14293;BME280;62290;59.420;17.842;2023-01-25T13:04:29;101291.41;;;25.99;26.78
14293;BME280;62290;59.420;17.842;2023-01-25T13:07:09;101280.25;;;25.92;26.88
14293;BME280;62290;59.420;17.842;2023-01-25T13:09:44;101289.38;;;25.91;27.11